Time;durP1;ratioP1;P1;durP2;ratioP2;P2;SDS_P1;SDS_P2;PMS_P1;PMS_P2;Temp;Humidity;BMP_temperature;BMP_pressure;BME280_temperature;BME280_humidity;BME280_pressure;Samples;Min_cycle;Max_cycle;Signal;HPM_P1;HPM_P2
2023/08/28 00:02:11;;;;;;;13.15;3.55;;;;;;;22.22;50.72;93642.44;5025357;28;20018;-77
2023/08/28 00:04:36;;;;;;;7.68;3.17;;;;;;;22.19;50.80;93635.09;5025410;28;20018;-76
2023/08/28 00:07:02;;;;;;;7.10;2.88;;;;;;;22.12;51.67;93631.63;5023373;28;20048;-76
2023/08/28 00:09:27;;;;;;;6.35;3.72;;;;;;;22.04;51.72;93628.16;5025340;28;20028;-76
2023/08/28 00:11:56;;;;;;;6.95;3.20;;;;;;;21.97;51.98;93639.03;5025147;28;20110;-76
2023/08/28 00:14:23;;;;;;;5.65;2.90;;;;;;;22.00;51.88;93638.25;5024186;28;20026;-76
2023/08/28 00:16:49;;;;;;;7.45;3.70;;;;;;;21.94;51.86;93631.66;5023981;28;20377;-76
2023/08/28 00:19:15;;;;;;;9.73;3.30;;;;;;;21.88;52.19;93630.50;5025315;28;20026;-76
2023/08/28 00:21:40;;;;;;;6.40;3.58;;;;;;;21.81;52.41;93631.31;5025062;28;20260;-76
2023/08/28 00:24:06;;;;;;;8.40;3.85;;;;;;;21.81;52.40;93634.78;5025202;28;20022;-76
2023/08/28 00:26:32;;;;;;;14.75;4.47;;;;;;;21.84;52.24;93625.88;5025091;28;20276;-76
2023/08/28 00:28:57;;;;;;;7.78;3.13;;;;;;;21.77;52.26;93630.53;5024955;28;20097;-76
2023/08/28 00:31:23;;;;;;;6.72;3.42;;;;;;;21.70;52.88;93633.28;5024925;28;20208;-76
2023/08/28 00:33:48;;;;;;;5.43;3.00;;;;;;;21.66;52.98;93635.97;5024798;28;20025;-76
2023/08/28 00:36:15;;;;;;;8.45;3.42;;;;;;;21.64;53.17;93630.94;5024983;28;20219;-77
2023/08/28 00:38:41;;;;;;;5.57;3.00;;;;;;;21.68;52.96;93636.38;5024727;28;20094;-76
2023/08/28 00:41:07;;;;;;;7.15;3.50;;;;;;;21.66;52.95;93633.28;5024696;28;20021;-76
2023/08/28 00:43:32;;;;;;;13.40;3.88;;;;;;;21.64;53.16;93647.22;5023555;28;20026;-76
2023/08/28 00:45:58;;;;;;;6.30;3.40;;;;;;;21.61;53.03;93652.63;5024543;28;20342;-76
2023/08/28 00:48:24;;;;;;;7.13;4.05;;;;;;;21.54;53.37;93649.94;5024493;28;20029;-76
2023/08/28 00:50:51;;;;;;;7.68;3.20;;;;;;;21.50;53.58;93651.88;5023340;28;20375;-76
2023/08/28 00:53:17;;;;;;;7.82;3.70;;;;;;;21.47;53.50;93658.81;5024447;28;20049;-76
2023/08/28 00:55:44;;;;;;;9.00;3.63;;;;;;;21.45;53.67;93658.44;5024533;28;20037;-76
2023/08/28 00:58:09;;;;;;;8.82;4.22;;;;;;;21.40;53.46;93651.44;5024463;28;20022;-76
2023/08/28 01:00:35;;;;;;;5.93;4.07;;;;;;;21.37;53.69;93646.81;5024319;28;20228;-77
2023/08/28 01:03:00;;;;;;;9.30;4.10;;;;;;;21.32;53.82;93641.75;5024193;28;20014;-77
2023/08/28 01:05:44;;;;;;;10.55;3.95;;;;;;;21.28;53.74;93642.91;5024360;28;20060;-77
2023/08/28 01:08:25;;;;;;;9.30;3.90;;;;;;;21.20;54.36;93634.78;5024216;28;20220;-76
2023/08/28 01:11:18;;;;;;;12.93;4.00;;;;;;;21.22;54.43;93627.03;5023834;28;20025;-76
2023/08/28 01:13:52;;;;;;;6.07;3.83;;;;;;;21.23;54.15;93631.31;5023674;28;20038;-76
2023/08/28 01:16:22;;;;;;;7.38;3.80;;;;;;;21.24;53.92;93635.53;5022960;28;20022;-76
2023/08/28 01:18:48;;;;;;;8.60;4.20;;;;;;;21.21;53.78;93636.34;5023755;28;20025;-76
2023/08/28 01:21:14;;;;;;;10.15;3.95;;;;;;;21.18;54.28;93630.91;5024075;28;20119;-76
2023/08/28 01:24:08;;;;;;;10.73;3.88;;;;;;;21.13;54.53;93640.19;5023799;28;20017;-76
2023/08/28 01:26:34;;;;;;;11.05;3.97;;;;;;;21.08;54.70;93634.38;5023687;28;20325;-76
2023/08/28 01:28:59;;;;;;;6.25;3.40;;;;;;;21.09;54.69;93635.94;5024008;28;20037;-76
2023/08/28 01:31:25;;;;;;;6.88;3.65;;;;;;;21.07;54.85;93628.19;5023946;28;20022;-77
2023/08/28 01:33:51;;;;;;;10.52;3.90;;;;;;;20.99;54.84;93624.69;5023587;28;20022;-77
2023/08/28 01:36:30;;;;;;;8.23;4.00;;;;;;;20.99;55.19;93624.69;5023659;28;20316;-77
2023/08/28 01:39:04;;;;;;;9.30;3.90;;;;;;;20.95;56.08;93621.19;5023732;28;20080;-77
2023/08/28 01:41:31;;;;;;;6.07;3.92;;;;;;;20.99;55.25;93626.63;5023579;28;20235;-77
2023/08/28 01:44:01;;;;;;;6.28;3.53;;;;;;;20.97;55.27;93631.66;5023687;28;20217;-76
2023/08/28 01:46:28;;;;;;;14.18;4.30;;;;;;;20.91;55.77;93623.13;5023497;28;20029;-77
2023/08/28 01:48:53;;;;;;;9.20;4.25;;;;;;;20.98;56.30;93625.84;5023518;28;20206;-76
2023/08/28 01:51:22;;;;;;;8.20;4.22;;;;;;;20.98;56.54;93615.00;5023433;28;20052;-77
2023/08/28 01:53:49;;;;;;;8.90;4.63;;;;;;;20.94;56.82;93605.31;5023453;28;20053;-76
2023/08/28 01:56:19;;;;;;;7.55;4.10;;;;;;;20.92;57.00;93618.47;5023520;28;20032;-77
2023/08/28 01:58:55;;;;;;;10.57;4.00;;;;;;;20.92;57.02;93605.69;5023149;28;20025;-77
2023/08/28 02:01:25;;;;;;;9.02;4.20;;;;;;;20.84;57.25;93609.56;5023489;28;20075;-77
2023/08/28 02:03:52;;;;;;;8.70;3.78;;;;;;;20.80;57.30;93604.16;5023523;28;20303;-77
2023/08/28 02:06:17;;;;;;;12.48;3.67;;;;;;;20.78;57.92;93611.88;5023106;28;20049;-77
2023/08/28 02:08:43;;;;;;;5.63;3.67;;;;;;;20.72;57.88;93613.41;5022222;28;20029;-77
2023/08/28 02:11:09;;;;;;;6.22;3.40;;;;;;;20.71;58.15;93611.84;5022988;28;20033;-78
2023/08/28 02:13:34;;;;;;;8.25;4.30;;;;;;;20.68;58.21;93601.00;5023222;28;20030;-77
2023/08/28 02:16:00;;;;;;;7.45;3.75;;;;;;;20.66;58.46;93600.63;5023270;28;20028;-76
2023/08/28 02:18:27;;;;;;;8.40;3.88;;;;;;;20.60;58.58;93601.00;5023197;28;20182;-76
2023/08/28 02:20:52;;;;;;;8.05;3.50;;;;;;;20.61;58.91;93601.78;5023132;28;20044;-76
2023/08/28 02:23:18;;;;;;;7.20;4.03;;;;;;;20.56;58.67;93602.91;5022804;28;20320;-76
2023/08/28 02:25:45;;;;;;;6.72;3.55;;;;;;;20.49;58.08;93600.16;5023110;28;20105;-77
2023/08/28 02:28:11;;;;;;;13.40;4.47;;;;;;;20.45;57.77;93602.09;5022914;28;20042;-77
2023/08/28 02:30:37;;;;;;;7.90;3.45;;;;;;;20.33;58.37;93611.31;5025327;28;20025;-77
2023/08/28 02:33:03;;;;;;;9.35;3.70;;;;;;;20.37;58.13;93600.50;5029618;28;20028;-77
2023/08/28 02:35:28;;;;;;;10.30;3.92;;;;;;;20.39;58.11;93595.47;5029594;28;20028;-77
2023/08/28 02:37:53;;;;;;;13.52;3.85;;;;;;;20.34;58.48;93593.16;5029485;28;20025;-77
2023/08/28 02:40:19;;;;;;;13.80;3.88;;;;;;;20.28;59.28;93592.75;5029431;28;20029;-77
2023/08/28 02:42:44;;;;;;;13.23;4.18;;;;;;;20.28;59.28;93594.69;5029215;28;20041;-77
2023/08/28 02:45:10;;;;;;;10.40;3.67;;;;;;;20.27;59.25;93593.13;5029543;28;20059;-77
2023/08/28 02:47:35;;;;;;;7.82;3.85;;;;;;;20.27;59.72;93598.53;5029365;28;20032;-77
2023/08/28 02:50:01;;;;;;;10.00;3.75;;;;;;;20.21;59.56;93598.91;5029307;28;20021;-77
2023/08/28 02:52:26;;;;;;;9.43;3.47;;;;;;;20.12;59.96;93590.34;5029385;28;20034;-76
2023/08/28 02:54:52;;;;;;;7.35;3.92;;;;;;;20.08;59.82;93586.84;5029385;28;20047;-76
2023/08/28 02:57:18;;;;;;;14.85;3.92;;;;;;;20.07;59.90;93590.75;5029117;28;20028;-76
2023/08/28 02:59:43;;;;;;;12.32;4.95;;;;;;;20.03;60.06;93587.25;5029308;28;20030;-76
2023/08/28 03:02:09;;;;;;;7.53;4.20;;;;;;;19.98;60.00;93599.19;5029314;28;20034;-76
2023/08/28 03:04:35;;;;;;;8.77;3.85;;;;;;;20.00;58.98;93593.41;5028427;28;20025;-76
2023/08/28 03:07:00;;;;;;;22.40;4.75;;;;;;;19.97;59.30;93578.69;5029153;28;20036;-76
2023/08/28 03:09:26;;;;;;;10.30;4.55;;;;;;;19.94;59.83;93582.16;5026944;28;20295;-76
2023/08/28 03:11:51;;;;;;;13.05;4.32;;;;;;;19.99;59.09;93597.25;5028251;28;20045;-76
2023/08/28 03:14:17;;;;;;;8.60;3.70;;;;;;;20.04;58.52;93596.88;5026716;28;20033;-76
2023/08/28 03:16:42;;;;;;;7.10;3.55;;;;;;;20.00;58.76;93598.81;5028781;28;20029;-76
2023/08/28 03:19:08;;;;;;;8.35;3.63;;;;;;;19.92;58.64;93602.63;5028875;28;20033;-76
2023/08/28 03:21:34;;;;;;;7.95;3.95;;;;;;;19.88;58.97;93599.13;5029192;28;20032;-76
2023/08/28 03:24:00;;;;;;;11.20;3.80;;;;;;;19.87;58.85;93603.78;5029066;28;20335;-76
2023/08/28 03:26:26;;;;;;;12.00;4.55;;;;;;;19.91;58.43;93606.50;5028896;28;20358;-77
2023/08/28 03:28:51;;;;;;;9.63;4.20;;;;;;;19.79;58.87;93600.25;5028951;28;20049;-77
2023/08/28 03:31:17;;;;;;;11.65;3.60;;;;;;;19.73;59.22;93599.03;5029149;28;20029;-77
2023/08/28 03:33:42;;;;;;;11.02;4.13;;;;;;;19.67;59.25;93584.31;5028885;28;20022;-77
2023/08/28 03:36:08;;;;;;;8.00;4.00;;;;;;;19.62;59.56;93592.75;5028968;28;20026;-77
2023/08/28 03:38:33;;;;;;;9.70;3.97;;;;;;;19.62;59.33;93592.75;5029137;28;20021;-77
2023/08/28 03:40:59;;;;;;;11.27;4.40;;;;;;;19.63;59.57;93599.72;5028900;28;20220;-77
2023/08/28 03:43:24;;;;;;;8.73;3.90;;;;;;;19.61;59.85;93593.91;5026194;28;20018;-77
2023/08/28 03:45:50;;;;;;;8.95;3.60;;;;;;;19.68;59.56;93593.19;5025590;28;20251;-77
2023/08/28 03:48:15;;;;;;;9.50;4.03;;;;;;;19.72;59.66;93594.81;5025648;28;20025;-77
2023/08/28 03:50:41;;;;;;;18.58;4.63;;;;;;;19.76;60.61;93589.41;5025787;28;20017;-76
2023/08/28 03:53:06;;;;;;;10.57;4.47;;;;;;;19.73;60.42;93593.63;5025726;28;20041;-76
2023/08/28 03:55:32;;;;;;;14.90;4.28;;;;;;;19.77;60.26;93589.03;5025527;28;20089;-76
2023/08/28 03:58:00;;;;;;;15.20;4.55;;;;;;;19.81;60.16;93584.41;5025368;28;20017;-77
2023/08/28 04:00:25;;;;;;;23.30;4.68;;;;;;;19.83;60.57;93590.22;5025566;28;20092;-77
2023/08/28 04:02:51;;;;;;;20.60;4.88;;;;;;;19.79;61.02;93592.13;5025764;28;20029;-77
2023/08/28 04:05:17;;;;;;;10.18;4.22;;;;;;;19.74;61.66;93597.91;5025343;28;20025;-77
2023/08/28 04:07:43;;;;;;;17.55;4.10;;;;;;;19.68;61.51;93585.84;5024270;28;20279;-77
2023/08/28 04:10:12;;;;;;;9.15;4.40;;;;;;;19.75;61.50;93583.22;5023990;28;20088;-78
2023/08/28 04:12:38;;;;;;;12.60;4.40;;;;;;;19.79;60.58;93585.94;5025036;28;20050;-77
2023/08/28 04:15:04;;;;;;;11.02;3.55;;;;;;;19.83;60.14;93586.75;5025475;28;20128;-77
2023/08/28 04:17:30;;;;;;;6.82;3.90;;;;;;;19.84;59.98;93586.38;5025177;28;20006;-77
2023/08/28 04:19:59;;;;;;;7.93;4.07;;;;;;;19.88;59.43;93585.59;5025129;28;20076;-77
2023/08/28 04:22:24;;;;;;;15.02;4.10;;;;;;;19.90;59.31;93591.41;5024903;28;20212;-77
2023/08/28 04:24:51;;;;;;;7.07;3.70;;;;;;;19.95;58.75;93574.84;5025065;28;20024;-77
2023/08/28 04:27:17;;;;;;;6.38;3.83;;;;;;;19.94;59.11;93589.50;5025005;28;20018;-77
2023/08/28 04:29:42;;;;;;;12.27;4.03;;;;;;;19.93;58.96;93586.03;5023523;28;20197;-77
2023/08/28 04:32:09;;;;;;;8.23;3.78;;;;;;;19.99;59.60;93594.56;5024803;28;20029;-76
2023/08/28 04:34:34;;;;;;;9.85;3.95;;;;;;;19.93;59.76;93596.84;5023803;28;20128;-76
2023/08/28 04:37:00;;;;;;;10.23;4.30;;;;;;;19.96;59.32;93601.47;5024853;28;20014;-77
2023/08/28 04:39:25;;;;;;;8.07;3.55;;;;;;;20.08;59.36;93603.09;5024748;28;20014;-80
2023/08/28 04:41:52;;;;;;;17.20;4.22;;;;;;;20.12;58.94;93590.34;5023527;28;20018;-80
2023/08/28 04:44:18;;;;;;;8.13;4.22;;;;;;;20.19;58.34;93600.44;5023505;28;20137;-80
2023/08/28 04:46:43;;;;;;;7.68;4.65;;;;;;;20.19;58.68;93606.63;5024145;28;20320;-80
2023/08/28 04:49:10;;;;;;;11.93;5.22;;;;;;;20.21;58.85;93604.31;5024287;28;20017;-81
2023/08/28 04:51:35;;;;;;;12.82;5.03;;;;;;;20.24;59.10;93603.56;5024351;28;20030;-80
2023/08/28 04:54:00;;;;;;;9.48;5.22;;;;;;;20.24;59.02;93606.25;5023854;28;20033;-80
2023/08/28 04:56:26;;;;;;;11.45;5.25;;;;;;;20.23;59.20;93610.13;5023204;28;20034;-80
2023/08/28 04:58:51;;;;;;;25.40;6.65;;;;;;;20.32;59.46;93609.00;5022250;28;20029;-80
2023/08/28 05:01:17;;;;;;;9.73;4.85;;;;;;;20.38;59.05;93615.59;5022942;28;20324;-80
2023/08/28 05:03:42;;;;;;;12.43;5.75;;;;;;;20.37;58.80;93611.34;5022742;28;20026;-81
2023/08/28 05:06:08;;;;;;;13.80;5.72;;;;;;;20.40;58.43;93613.28;5023138;28;20026;-80
2023/08/28 05:08:33;;;;;;;10.75;5.95;;;;;;;20.40;58.89;93613.28;5022527;28;20049;-80
2023/08/28 05:11:02;;;;;;;13.40;7.18;;;;;;;20.47;58.40;93597.06;5022795;28;20053;-80
2023/08/28 05:13:28;;;;;;;10.10;5.70;;;;;;;20.47;58.32;93594.34;5022215;28;20045;-77
2023/08/28 05:15:53;;;;;;;16.88;6.72;;;;;;;20.48;58.50;93593.22;5023539;28;20093;-77
2023/08/28 05:18:19;;;;;;;19.45;7.05;;;;;;;20.56;58.05;93591.31;5023905;28;20036;-78
2023/08/28 05:20:44;;;;;;;17.05;6.55;;;;;;;20.59;58.31;93588.63;5023799;28;20026;-77
2023/08/28 05:23:09;;;;;;;23.90;6.45;;;;;;;20.66;58.34;93587.88;5022587;28;20034;-77
2023/08/28 05:25:35;;;;;;;16.85;6.22;;;;;;;20.72;58.67;93589.06;5023815;28;20053;-78
2023/08/28 05:28:00;;;;;;;26.95;5.95;;;;;;;20.78;57.41;93598.34;5023767;28;20026;-77
2023/08/28 05:30:26;;;;;;;20.65;6.90;;;;;;;20.84;57.48;93599.53;5022660;28;20033;-77
2023/08/28 05:32:51;;;;;;;14.35;5.63;;;;;;;20.92;57.52;93603.00;5023761;28;20029;-78
2023/08/28 05:35:17;;;;;;;15.20;6.30;;;;;;;20.98;57.25;93595.25;5023612;28;20252;-78
2023/08/28 05:37:42;;;;;;;13.25;5.78;;;;;;;21.02;57.32;93598.75;5022476;28;20042;-78
2023/08/28 05:40:08;;;;;;;15.60;5.82;;;;;;;21.08;56.64;93599.16;5023639;28;20018;-78
2023/08/28 05:42:34;;;;;;;18.50;5.72;;;;;;;21.08;56.39;93597.22;5023643;28;20024;-78
2023/08/28 05:44:59;;;;;;;15.07;5.97;;;;;;;21.10;56.25;93597.59;5023624;28;20022;-78
2023/08/28 05:47:25;;;;;;;12.60;5.50;;;;;;;21.17;56.46;93596.84;5023557;28;20049;-78
2023/08/28 05:49:50;;;;;;;14.02;5.55;;;;;;;21.26;56.60;93591.03;5022353;28;20029;-78
2023/08/28 05:52:16;;;;;;;20.40;5.82;;;;;;;21.34;55.76;93584.44;5023232;28;20020;-78
2023/08/28 05:54:41;;;;;;;15.05;5.28;;;;;;;21.44;55.71;93586.41;5023478;28;20025;-77
2023/08/28 05:57:07;;;;;;;29.17;5.47;;;;;;;21.53;55.99;93575.94;5023433;28;20370;-78
2023/08/28 05:59:32;;;;;;;11.38;5.72;;;;;;;21.60;56.16;93578.66;5023311;28;20034;-79
2023/08/28 06:01:59;;;;;;;9.27;5.13;;;;;;;21.68;55.48;93581.38;5023259;28;20025;-80
2023/08/28 06:04:24;;;;;;;12.82;5.20;;;;;;;21.76;55.04;93580.94;5023267;28;20201;-80
2023/08/28 06:06:49;;;;;;;20.50;5.50;;;;;;;21.80;55.52;93576.28;5022436;28;20029;-80
2023/08/28 06:09:15;;;;;;;16.60;5.93;;;;;;;21.91;54.69;93575.50;5022107;28;20042;-79
2023/08/28 06:11:42;;;;;;;20.75;6.03;;;;;;;22.02;53.71;93587.88;5023073;28;20045;-79
2023/08/28 06:14:10;;;;;;;16.00;5.68;;;;;;;22.04;53.64;93582.03;5023190;28;20308;-79
2023/08/28 06:16:36;;;;;;;11.10;5.40;;;;;;;22.14;53.48;93594.03;5021736;28;20025;-79
2023/08/28 06:19:03;;;;;;;21.80;6.30;;;;;;;22.16;52.60;93592.44;5023326;28;20033;-79
2023/08/28 06:21:28;;;;;;;53.83;8.35;;;;;;;22.20;52.94;93598.63;5022884;28;20029;-79
2023/08/28 06:23:54;;;;;;;29.65;6.00;;;;;;;22.26;52.79;93606.41;5022863;28;20044;-79
2023/08/28 06:26:19;;;;;;;28.88;6.03;;;;;;;22.28;52.78;93604.84;5022860;28;20312;-79
2023/08/28 06:28:45;;;;;;;19.15;5.25;;;;;;;22.34;52.17;93613.38;5021673;28;20109;-79
2023/08/28 06:31:11;;;;;;;16.92;5.68;;;;;;;22.36;52.52;93616.47;5022942;28;20373;-78
2023/08/28 06:33:36;;;;;;;14.98;5.55;;;;;;;22.37;52.32;93602.50;5022912;28;20029;-78
2023/08/28 06:36:02;;;;;;;17.90;5.88;;;;;;;22.44;52.44;93598.97;5021925;28;20025;-77
2023/08/28 06:38:28;;;;;;;20.27;6.13;;;;;;;22.59;52.29;93602.38;5021690;28;20029;-78
2023/08/28 06:40:53;;;;;;;16.25;5.22;;;;;;;22.61;51.93;93610.91;5022803;28;20106;-78
2023/08/28 06:43:19;;;;;;;17.45;4.40;;;;;;;22.61;51.46;93609.00;5022798;28;20022;-78
2023/08/28 06:45:45;;;;;;;11.40;5.07;;;;;;;22.58;51.95;93614.44;5022961;28;20312;-78
2023/08/28 06:48:11;;;;;;;16.38;5.40;;;;;;;22.67;52.03;93606.63;5022874;28;20021;-77
2023/08/28 06:50:36;;;;;;;9.48;4.63;;;;;;;22.70;50.90;93602.34;5022653;28;20197;-76
2023/08/28 06:53:05;;;;;;;8.18;4.40;;;;;;;22.74;50.79;93609.31;5022800;28;20060;-77
2023/08/28 06:55:32;;;;;;;14.05;4.70;;;;;;;22.87;51.09;93600.69;5023064;28;20028;-76
2023/08/28 06:57:58;;;;;;;12.55;5.18;;;;;;;22.91;50.38;93604.94;5022788;28;20029;-77
2023/08/28 07:00:26;;;;;;;15.63;5.10;;;;;;;23.01;50.04;93609.56;5022631;28;20089;-76
2023/08/28 07:02:52;;;;;;;13.73;5.32;;;;;;;23.10;50.18;93606.41;5022664;28;20021;-76
2023/08/28 07:05:17;;;;;;;21.35;6.43;;;;;;;23.11;50.25;93609.91;5022568;28;20032;-76
2023/08/28 07:07:43;;;;;;;10.30;4.85;;;;;;;23.11;49.95;93601.75;5022449;28;20030;-77
2023/08/28 07:10:09;;;;;;;14.05;4.80;;;;;;;23.11;49.54;93599.78;5022716;28;20034;-76
2023/08/28 07:12:34;;;;;;;23.08;5.47;;;;;;;23.25;49.40;93607.09;5022631;28;20190;-76
2023/08/28 07:15:25;;;;;;;11.32;5.18;;;;;;;23.37;49.25;93606.59;5022579;28;20041;-76
2023/08/28 07:17:51;;;;;;;10.35;4.45;;;;;;;23.43;48.91;93610.44;5025091;28;20207;-76
2023/08/28 07:20:16;;;;;;;22.42;5.97;;;;;;;23.51;48.57;93603.00;5026337;28;20034;-76
2023/08/28 07:22:41;;;;;;;13.43;4.32;;;;;;;23.61;47.97;93598.63;5026059;28;20057;-75
2023/08/28 07:25:07;;;;;;;16.58;5.32;;;;;;;23.67;48.31;93601.69;5026285;28;20017;-75
2023/08/28 07:27:33;;;;;;;13.68;4.75;;;;;;;23.76;47.65;93602.00;5026272;28;20320;-74
2023/08/28 07:29:59;;;;;;;11.73;5.28;;;;;;;23.83;47.54;93607.38;5026094;28;20018;-74
2023/08/28 07:32:24;;;;;;;15.38;4.72;;;;;;;23.91;47.52;93613.53;5026057;28;20334;-75
2023/08/28 07:34:50;;;;;;;13.20;4.85;;;;;;;24.04;46.83;93614.59;5024789;28;20018;-75
2023/08/28 07:37:15;;;;;;;12.52;4.60;;;;;;;24.09;47.07;93611.41;5025971;28;20021;-75
2023/08/28 07:39:40;;;;;;;10.57;4.80;;;;;;;24.20;46.76;93600.38;5026196;28;20048;-75
2023/08/28 07:42:06;;;;;;;11.95;4.65;;;;;;;24.32;46.84;93602.63;5025941;28;20029;-76
2023/08/28 07:44:31;;;;;;;12.23;5.45;;;;;;;24.45;46.15;93602.84;5026018;28;20037;-77
2023/08/28 07:46:57;;;;;;;16.25;5.75;;;;;;;24.54;46.49;93608.59;5025812;28;20026;-74
2023/08/28 07:49:22;;;;;;;10.90;5.25;;;;;;;24.61;45.46;93605.78;5025713;28;20323;-75
2023/08/28 07:51:47;;;;;;;15.02;5.43;;;;;;;24.55;46.02;93607.41;5025652;28;20080;-76
2023/08/28 07:54:13;;;;;;;11.65;5.22;;;;;;;24.68;45.44;93609.59;5025684;28;20299;-74
2023/08/28 07:56:38;;;;;;;14.77;5.30;;;;;;;24.78;45.10;93614.91;5025516;28;20056;-76
2023/08/28 07:59:04;;;;;;;9.13;5.10;;;;;;;24.83;44.97;93619.91;5025544;28;20331;-76
2023/08/28 08:01:30;;;;;;;18.50;5.40;;;;;;;24.89;44.94;93606.56;5025226;28;20037;-77
2023/08/28 08:03:56;;;;;;;15.77;4.70;;;;;;;24.98;45.55;93608.81;5025451;28;20032;-77
2023/08/28 08:06:22;;;;;;;14.25;5.15;;;;;;;25.05;44.82;93613.38;5025469;28;20083;-78
2023/08/28 08:08:48;;;;;;;10.65;4.85;;;;;;;25.19;44.79;93613.16;5025043;28;20034;-75
2023/08/28 08:11:14;;;;;;;8.98;4.80;;;;;;;25.28;44.08;93613.47;5025080;28;20318;-76
2023/08/28 08:13:39;;;;;;;12.20;5.20;;;;;;;25.35;43.62;93612.56;5025329;28;20053;-78
2023/08/28 08:16:05;;;;;;;18.88;5.55;;;;;;;25.42;43.39;93607.78;5025516;28;20029;-77
2023/08/28 08:18:31;;;;;;;11.20;4.60;;;;;;;25.41;43.59;93608.97;5023992;28;20064;-76
2023/08/28 08:20:57;;;;;;;12.20;4.95;;;;;;;25.52;43.81;93605.28;5025029;28;20129;-78
2023/08/28 08:23:22;;;;;;;17.25;4.80;;;;;;;25.69;43.26;93611.66;5025041;28;20030;-78
2023/08/28 08:25:48;;;;;;;25.60;6.10;;;;;;;25.85;43.21;93608.25;5024957;28;20072;-81
2023/08/28 08:28:15;;;;;;;18.85;4.80;;;;;;;25.95;42.31;93612.78;5024098;28;20364;-82
2023/08/28 08:30:41;;;;;;;8.05;4.15;;;;;;;26.01;42.09;93602.91;5025053;28;20026;-85
2023/08/28 08:33:07;;;;;;;9.25;4.57;;;;;;;26.09;42.50;93600.81;5024912;28;20263;-79
2023/08/28 08:35:34;;;;;;;11.48;4.95;;;;;;;26.20;42.29;93606.88;5025003;28;20032;-84
2023/08/28 08:38:00;;;;;;;10.23;4.82;;;;;;;26.27;41.84;93603.97;5024911;28;20026;-85
2023/08/28 08:40:26;;;;;;;9.48;4.35;;;;;;;26.36;41.49;93597.97;5024856;28;20431;-83
2023/08/28 08:42:53;;;;;;;14.73;4.72;;;;;;;26.28;41.36;93597.34;5024882;28;20030;-83
2023/08/28 08:45:21;;;;;;;12.35;4.85;;;;;;;26.37;41.60;93597.53;5024797;28;20096;-82
2023/08/28 08:47:50;;;;;;;15.25;4.45;;;;;;;26.51;40.73;93601.97;5024419;28;20049;-80
2023/08/28 08:50:18;;;;;;;12.95;5.22;;;;;;;26.56;41.29;93595.22;5024776;28;20029;-79
2023/08/28 08:52:45;;;;;;;13.07;5.35;;;;;;;26.61;41.27;93590.06;5024689;28;20072;-78
2023/08/28 08:55:34;;;;;;;15.25;4.72;;;;;;;26.72;40.56;93592.56;5024611;28;20026;-79
2023/08/28 08:58:04;;;;;;;14.05;4.50;;;;;;;26.88;40.42;93583.63;5024603;28;20375;-80
2023/08/28 09:00:31;;;;;;;15.63;5.25;;;;;;;27.02;39.96;93582.56;5023158;28;20061;-80
2023/08/28 09:02:56;;;;;;;15.63;4.72;;;;;;;27.14;39.40;93572.91;5024306;28;20034;-80
2023/08/28 09:05:23;;;;;;;19.20;5.65;;;;;;;27.28;39.42;93566.38;5024201;28;20021;-77
2023/08/28 09:07:49;;;;;;;12.07;5.25;;;;;;;27.41;39.64;93562.50;5024220;28;20030;-77
2023/08/28 09:10:15;;;;;;;21.23;4.82;;;;;;;27.52;37.83;93565.00;5024245;28;20029;-78
2023/08/28 09:12:46;;;;;;;14.00;4.75;;;;;;;27.54;38.28;93561.81;5024123;28;20108;-79
2023/08/28 09:15:11;;;;;;;10.32;4.85;;;;;;;27.63;38.10;93562.00;5024188;28;20030;-79
2023/08/28 09:17:39;;;;;;;12.32;3.97;;;;;;;27.71;37.35;93562.59;5024283;28;20081;-77
2023/08/28 09:20:18;;;;;;;16.00;4.25;;;;;;;27.82;37.41;93560.31;5024195;28;20049;-78
2023/08/28 09:22:54;;;;;;;19.60;5.30;;;;;;;27.93;38.16;93560.09;5024021;28;20040;-76
2023/08/28 09:25:24;;;;;;;9.05;4.40;;;;;;;28.02;37.15;93547.28;5022742;28;20324;-78
2023/08/28 09:27:52;;;;;;;10.30;4.88;;;;;;;28.00;37.23;93544.22;5022521;28;20100;-79
2023/08/28 09:30:37;;;;;;;12.60;4.35;;;;;;;28.15;36.17;93539.16;5023813;28;20030;-79
2023/08/28 09:33:07;;;;;;;15.00;4.75;;;;;;;28.27;36.62;93531.38;5023860;28;20018;-79
2023/08/28 09:35:39;;;;;;;19.05;5.68;;;;;;;28.39;36.06;93519.69;5022633;28;20077;-79
2023/08/28 09:38:04;;;;;;;15.73;4.63;;;;;;;28.48;34.57;93533.53;5023776;28;20060;-79
2023/08/28 09:40:38;;;;;;;15.57;4.28;;;;;;;28.52;33.98;93534.22;5023468;28;20021;-78
2023/08/28 09:43:12;;;;;;;8.13;4.38;;;;;;;28.56;34.20;93523.91;5023781;28;20026;-79
2023/08/28 09:45:38;;;;;;;7.28;4.22;;;;;;;28.58;33.65;93521.50;5023519;28;20085;-78
2023/08/28 09:48:04;;;;;;;8.60;3.97;;;;;;;28.60;34.26;93523.81;5023400;28;20021;-78
2023/08/28 09:50:31;;;;;;;10.75;4.47;;;;;;;28.74;34.63;93517.13;5023350;28;20104;-79
2023/08/28 09:53:10;;;;;;;8.13;4.03;;;;;;;28.85;33.62;93503.84;5023527;28;20403;-78
2023/08/28 09:55:54;;;;;;;12.35;3.88;;;;;;;28.88;33.10;93500.25;5023644;28;20022;-77
2023/08/28 09:58:23;;;;;;;9.55;3.10;;;;;;;28.95;32.03;93505.50;5023450;28;20044;-77
2023/08/28 10:00:50;;;;;;;6.80;3.83;;;;;;;29.10;31.56;93497.56;5023278;28;20030;-77
2023/08/28 10:03:16;;;;;;;7.15;2.70;;;;;;;29.17;31.73;93499.38;5023366;28;20025;-77
2023/08/28 10:05:44;;;;;;;11.00;3.33;;;;;;;29.36;32.90;93495.59;5023480;28;20033;-77
2023/08/28 10:08:12;;;;;;;9.75;3.67;;;;;;;29.54;33.61;93495.00;5023236;28;20173;-77
2023/08/28 10:10:42;;;;;;;11.95;3.50;;;;;;;29.66;32.27;93489.91;5023076;28;20025;-78
2023/08/28 10:13:14;;;;;;;15.30;4.32;;;;;;;29.74;32.37;93486.50;5023033;28;20113;-77
2023/08/28 10:15:44;;;;;;;6.18;3.33;;;;;;;29.88;31.55;93490.75;5023345;28;20274;-78
2023/08/28 10:18:15;;;;;;;9.00;3.97;;;;;;;29.93;30.82;93481.91;5023052;28;20018;-77
2023/08/28 10:20:42;;;;;;;9.38;3.92;;;;;;;29.99;30.67;93482.13;5023331;28;20029;-79
2023/08/28 10:23:09;;;;;;;8.25;3.65;;;;;;;30.03;32.09;93480.00;5022981;28;20028;-77
2023/08/28 10:25:36;;;;;;;16.10;4.22;;;;;;;30.13;32.54;93470.59;5023066;28;20038;-77
2023/08/28 10:28:03;;;;;;;8.10;3.58;;;;;;;30.25;31.93;93473.75;5022985;28;20022;-76
2023/08/28 10:30:30;;;;;;;8.60;3.47;;;;;;;30.39;31.27;93465.75;5023043;28;20039;-77
2023/08/28 10:32:58;;;;;;;7.45;3.38;;;;;;;30.53;32.06;93467.19;5023108;28;20029;-77
2023/08/28 10:35:25;;;;;;;6.75;3.38;;;;;;;30.51;29.50;93458.63;5022642;28;20021;-77
2023/08/28 10:37:51;;;;;;;8.32;3.33;;;;;;;30.49;29.02;93461.06;5019870;28;20089;-77
2023/08/28 10:40:20;;;;;;;8.82;4.18;;;;;;;30.51;29.25;93455.88;5019567;28;20278;-77
2023/08/28 10:42:47;;;;;;;14.90;4.22;;;;;;;30.51;29.50;93453.13;5019580;28;20092;-77
2023/08/28 10:45:13;;;;;;;14.52;3.70;;;;;;;30.62;28.30;93454.72;5051681;28;20216;-77
2023/08/28 10:47:38;;;;;;;10.70;3.45;;;;;;;30.67;29.06;93451.34;5020513;28;20105;-77
2023/08/28 10:50:07;;;;;;;10.63;4.25;;;;;;;30.81;28.45;93445.28;5019752;28;20036;-77
2023/08/28 10:52:33;;;;;;;13.20;3.15;;;;;;;30.88;28.57;93442.28;5021040;28;20380;-77
2023/08/28 10:55:06;;;;;;;6.90;3.03;;;;;;;30.97;29.51;93439.56;5024905;28;20048;-77
2023/08/28 10:57:32;;;;;;;11.07;3.63;;;;;;;31.04;27.16;93432.22;5025087;28;20041;-77
2023/08/28 11:00:13;;;;;;;14.68;3.78;;;;;;;31.09;27.70;93432.41;5024875;28;20022;-77
2023/08/28 11:02:57;;;;;;;;;;;;;;;31.10;28.21;93428.44;5024193;28;20324;-77
2023/08/28 11:05:23;;;;;;;6.53;3.30;;;;;;;31.19;27.95;93427.69;5026257;28;19973;-77
2023/08/28 11:07:54;;;;;;;7.80;3.40;;;;;;;31.30;28.13;93428.00;5026453;28;20265;-77
2023/08/28 11:10:20;;;;;;;12.35;3.35;;;;;;;31.46;27.82;93428.97;5026760;28;20053;-77
2023/08/28 11:13:01;;;;;;;8.07;3.10;;;;;;;31.58;27.78;93419.78;5026380;28;20218;-78
2023/08/28 11:15:27;;;;;;;13.32;3.15;;;;;;;31.78;27.89;93422.06;5024960;28;20033;-78
2023/08/28 11:18:21;;;;;;;9.82;3.15;;;;;;;31.96;26.93;93415.78;5024914;28;20064;-78
2023/08/28 11:20:55;;;;;;;6.63;3.20;;;;;;;32.02;25.76;93400.19;5025106;28;20021;-79
2023/08/28 11:23:34;;;;;;;7.53;3.20;;;;;;;32.13;25.64;93400.44;5026337;28;20042;-78
2023/08/28 11:26:17;;;;;;;6.10;2.75;;;;;;;32.21;25.06;93400.91;5026059;28;20026;-78
2023/08/28 11:28:45;;;;;;;5.00;2.78;;;;;;;32.25;25.37;93393.22;5026072;28;20037;-78
2023/08/28 11:31:11;;;;;;;13.52;3.13;;;;;;;32.33;26.75;93390.91;5033768;28;20021;-78